Terminal Aerodrome Forecast
Issued by NWS

Home | Current Version | Previous Version | Text Only | Print | Product List | Glossary On
Versions: 1 2 3 4 5 6 7 8 9 10 11 12 13 14 15 16 17 18 19 20 21 22 23 24 25 26 27 28 29 30 31 32
000
FTUS45 KGJT 020537
TAFVEL
TAF
KVEL 020537Z 0206/0306 29003KT P6SM VCSH SCT035 OVC050
      TEMPO 0210/0214 4SM -SN BR FEW015 BKN025 OVC035
     FM021400 14003KT 1 1/2SM -SN BR BKN015 OVC025
      TEMPO 0222/0302 5SM -SN BR SCT015 OVC025
     FM030200 28007KT P6SM VCSH SCT015 BKN025 OVC040=

USA.gov is the U.S. government's official web portal to all federal, state and local government web resources and services.